M I D A S
Marine Information and Data Acquisition System
Tripno 2246 of the Zeeleeuw from 2011-11-23 07:52:18 to 2011-11-23 15:39:22
Back to CruiseResearch ActivitiesStationsMapUnderway DataData graphs

EquipmentUnitsComment
TimeDGPSUTC
LatitudeDGPSDM.mWGS84
LongitudeDGPSDM.mWGS84
TemperatureSBE03/SBE38deg celciusITS90
ConductivitySBE21S/mITS90
SalinitySBE21 Practical Salinity Units
ChlorophylAChelsea fluorimeterg/lCalibrated in Aceton
Missing or incorrect values are displayed as -999
Sea surface data collected by the RV Zeeleeuw from 2011-11-23 07:42:10 to 2011-11-23 15:48:23
Time Latitude Longitude Temperature Conductivity Salinity ChlorophylA
2011-11-23 07:43:16 51°13.636 2°56.02 16.22 0.058543 0.30035 -3.020363
2011-11-23 07:44:16 51°13.636 2°56.02 16.219 0.05844 0.299814 -3.020363
2011-11-23 07:45:16 51°13.636 2°56.019 16.2264 0.058543 0.30036 -3.020363
2011-11-23 07:46:16 51°13.636 2°56.019 16.2279 0.058543 0.30036 -3.020363
2011-11-23 07:47:16 51°13.636 2°56.019 16.2179 0.058543 0.300365 -3.020363
2011-11-23 07:48:15 51°13.636 2°56.019 16.2314 0.05844 0.299824 -3.020363
2011-11-23 07:49:16 51°13.636 2°56.019 16.235 0.05844 0.299824 -3.020363
2011-11-23 07:50:16 51°13.636 2°56.019 16.252 0.058543 0.300365 -3.020363
2011-11-23 07:51:16 51°13.635 2°56.019 16.2645 0.058646 0.300906 -3.020363
2011-11-23 07:52:16 51°13.634 2°56.019 16.2644 0.058543 0.300365 -3.020363
2011-11-23 07:53:18 51°13.641 2°55.984 16.2618 0.058646 0.300906 -3.020363
2011-11-23 07:54:20 51°13.666 2°55.893 16.2891 0.058646 0.300911 -3.020363
2011-11-23 07:55:18 51°13.706 2°55.794 16.2824 0.058646 0.300916 -3.020363
2011-11-23 07:56:19 51°13.763 2°55.7 16.3226 0.058749 0.301457 -3.020363
2011-11-23 07:57:19 51°13.839 2°55.64 16.3207 0.058646 0.300916 -3.020363
2011-11-23 07:58:19 51°13.903 2°55.61 16.3475 0.058646 0.300921 -3.020363
2011-11-23 07:59:20 51°13.951 2°55.626 16.3269 0.058646 0.300925 -3.020363
2011-11-23 08:00:18 51°13.97 2°55.635 16.3384 0.058646 0.300911 -3.020363
2011-11-23 08:01:17 51°13.979 2°55.585 16.0049 0.058646 0.300935 -3.020363
2011-11-23 08:02:16 51°14.043 2°55.509 16.1501 0.058646 0.30093 -3.020363
2011-11-23 08:03:17 51°14.166 2°55.392 16.1799 0.058646 0.300925 -3.020363
2011-11-23 08:04:19 51°14.315 2°55.256 16.1115 0.058646 0.30093 -3.020363
2011-11-23 08:05:19 51°14.47 2°55.1 16.183 0.058646 0.30095 -3.020363
2011-11-23 08:06:17 51°14.62 2°54.943 16.268 0.058749 0.301462 -3.020363
2011-11-23 08:07:16 51°14.786 2°54.822 16.0686 0.058646 0.30093 -3.020363
2011-11-23 08:08:16 51°14.973 2°54.803 15.9881 0.058646 0.300925 -3.020363
2011-11-23 08:09:16 51°15.148 2°54.9 15.9719 0.058646 0.300935 -3.020363
2011-11-23 08:10:16 51°15.287 2°55.089 16.1674 0.058543 0.300404 -3.020363
2011-11-23 08:11:16 51°15.379 2°55.127 16.2491 0.058646 0.300989 -3.020363
2011-11-23 08:12:16 51°15.384 2°55.023 16.2177 0.058646 0.300969 -3.020363
2011-11-23 08:13:16 51°15.307 2°55.007 15.979 0.058646 0.300955 -3.020363
2011-11-23 08:14:16 51°15.236 2°55.039 16.1176 0.058646 0.300969 -3.020363
2011-11-23 08:15:16 51°15.181 2°55.055 16.0985 0.058646 0.300994 -3.020363
2011-11-23 08:16:16 51°15.143 2°55.02 16.1519 0.058543 0.300467 -3.020363
2011-11-23 08:17:16 51°15.103 2°54.957 16.097 0.058646 0.301018 -3.020363
2011-11-23 08:18:16 51°15.048 2°54.935 16.1581 0.058646 0.301052 -3.020363
2011-11-23 08:19:16 51°15.019 2°55.028 16.1644 0.058646 0.301052 -3.020363
2011-11-23 08:20:16 51°15.07 2°55.098 16.0964 0.058646 0.301072 -3.020363
2011-11-23 08:21:16 51°15.178 2°55.062 16.0034 0.058646 0.301076 -3.020363
2011-11-23 08:22:16 51°15.323 2°55.093 15.8484 0.058543 0.300579 -3.020363
2011-11-23 08:23:16 51°15.465 2°55.217 15.8721 0.058543 0.300608 -3.020363
2011-11-23 08:24:16 51°15.55 2°55.385 15.9817 0.058543 0.300637 -3.020363
2011-11-23 08:25:16 51°15.601 2°55.507 15.9262 0.058543 0.300681 -3.020363
2011-11-23 08:26:16 51°15.661 2°55.623 15.9527 0.058543 0.30072 -3.020363
2011-11-23 08:27:16 51°15.728 2°55.759 15.9501 0.058543 0.300769 -3.020363
2011-11-23 08:28:16 51°15.781 2°55.9 15.8849 0.058543 0.300813 -3.020363
2011-11-23 08:29:16 51°15.835 2°56.042 15.9238 0.058543 0.300862 -3.020363
2011-11-23 08:30:16 51°15.886 2°56.183 15.9017 0.058543 0.300905 -3.020363
2011-11-23 08:31:16 51°15.941 2°56.323 15.9162 0.058543 0.300949 -3.020363
2011-11-23 08:32:16 51°15.997 2°56.462 15.9432 0.058543 0.300998 -3.020363
2011-11-23 08:33:17 51°16.053 2°56.605 15.9218 0.058543 0.301052 -3.020363
2011-11-23 08:34:16 51°16.106 2°56.745 15.9077 0.05844 0.300563 -3.020363
2011-11-23 08:35:16 51°16.159 2°56.893 15.9357 0.05844 0.300617 -3.020363
2011-11-23 08:36:16 51°16.211 2°57.043 15.9591 0.05844 0.300671 -3.020363
2011-11-23 08:37:17 51°16.268 2°57.192 15.9336 0.05844 0.30072 -3.020363
2011-11-23 08:38:16 51°16.325 2°57.338 15.9543 0.05844 0.300773 -3.020363
2011-11-23 08:39:16 51°16.379 2°57.482 15.9324 0.05844 0.300822 -3.020363
2011-11-23 08:40:16 51°16.432 2°57.627 15.9514 0.05844 0.300871 -3.020363
2011-11-23 08:41:16 51°16.481 2°57.771 15.9648 0.05844 0.30091 -3.020363
2011-11-23 08:42:16 51°16.532 2°57.912 15.9691 0.05844 0.300954 -3.020363
2011-11-23 08:43:16 51°16.581 2°58.034 15.9606 0.058337 0.30045 -3.020363
2011-11-23 08:44:16 51°16.626 2°58.158 15.976 0.05844 0.301042 -3.020363
2011-11-23 08:45:16 51°16.673 2°58.29 15.9834 0.05844 0.301086 -3.020363
2011-11-23 08:46:16 51°16.72 2°58.425 15.9941 0.058337 0.300582 -3.020363
2011-11-23 08:47:16 51°16.767 2°58.554 16.0116 0.058337 0.300621 -3.020363
2011-11-23 08:48:16 51°16.811 2°58.686 16.0199 0.058337 0.300656 -3.020363
2011-11-23 08:49:16 51°16.85 2°58.822 16.0201 0.058337 0.300685 -3.020363
2011-11-23 08:50:16 51°16.89 2°58.958 16.0217 0.058337 0.300709 -3.020363
2011-11-23 08:51:16 51°16.933 2°59.092 16.0297 0.058337 0.300734 -3.020363
2011-11-23 08:52:16 51°16.978 2°59.225 16 0.058337 0.300749 -3.020363
2011-11-23 08:53:16 51°17.022 2°59.36 16.0262 0.058337 0.300773 -3.020363
2011-11-23 08:54:16 51°17.066 2°59.496 16.0481 0.058337 0.300793 -3.020363
2011-11-23 08:55:16 51°17.108 2°59.636 16.0522 0.058337 0.300817 -3.020363
2011-11-23 08:56:16 51°17.148 2°59.775 16.0512 0.058337 0.300842 -3.020363
2011-11-23 08:57:16 51°17.189 2°59.91 16.0756 0.058337 0.300866 -3.020363
2011-11-23 08:58:16 51°17.233 3°0.043 16.0819 0.058337 0.300891 -3.020363
2011-11-23 08:59:16 51°17.278 3°0.177 16.0767 0.058337 0.300915 -3.020363
2011-11-23 09:00:16 51°17.322 3°0.313 16.1019 0.058235 0.300396 -3.020363
2011-11-23 09:01:16 51°17.367 3°0.449 16.1116 0.058235 0.30042 -3.020363
2011-11-23 09:02:16 51°17.418 3°0.581 16.0992 0.058235 0.300445 -3.020363
2011-11-23 09:03:16 51°17.469 3°0.715 16.0909 0.058235 0.300464 -3.020363
2011-11-23 09:04:16 51°17.518 3°0.847 16.1019 0.058235 0.300489 -3.020363
2011-11-23 09:05:16 51°17.564 3°0.977 16.1117 0.058235 0.300508 -3.020363
2011-11-23 09:06:16 51°17.606 3°1.106 16.1114 0.058235 0.300533 -3.020363
2011-11-23 09:07:16 51°17.65 3°1.233 16.1574 0.058235 0.300557 -3.020363
2011-11-23 09:08:16 51°17.697 3°1.36 16.1372 0.058235 0.300582 -3.020363
2011-11-23 09:09:16 51°17.746 3°1.481 16.1696 0.058235 0.300602 -3.020363
2011-11-23 09:10:16 51°17.8 3°1.601 16.1694 0.058235 0.300626 -3.020363
2011-11-23 09:11:16 51°17.857 3°1.732 16.1532 0.058235 0.300646 -3.020363
2011-11-23 09:12:16 51°17.913 3°1.874 16.1867 0.058235 0.30067 -3.020363
2011-11-23 09:13:16 51°17.97 3°2.019 16.1847 0.058235 0.30069 -3.020363
2011-11-23 09:14:16 51°18.026 3°2.158 16.1796 0.058235 0.30071 -3.020363
2011-11-23 09:15:16 51°18.084 3°2.29 16.2023 0.058235 0.300734 -3.020363
2011-11-23 09:16:16 51°18.14 3°2.421 16.1956 0.058235 0.300754 -3.020363
2011-11-23 09:17:16 51°18.195 3°2.553 16.206 0.058235 0.300778 -3.020363
2011-11-23 09:18:16 51°18.25 3°2.686 16.2385 0.058235 0.300803 -3.020363
2011-11-23 09:19:16 51°18.303 3°2.819 16.2388 0.058235 0.300822 -3.020363
2011-11-23 09:20:16 51°18.356 3°2.956 16.2319 0.058235 0.300837 -3.020363
2011-11-23 09:21:16 51°18.41 3°3.091 16.2424 0.058235 0.300852 -3.020363
2011-11-23 09:22:16 51°18.466 3°3.224 16.2683 0.058235 0.300877 -3.020363
2011-11-23 09:23:16 51°18.529 3°3.343 16.2734 0.058235 0.300896 -3.020363
2011-11-23 09:24:16 51°18.601 3°3.441 16.2819 0.058235 0.300911 -3.020363
2011-11-23 09:25:16 51°18.678 3°3.532 16.2958 0.058235 0.300931 -3.020363
2011-11-23 09:26:16 51°18.756 3°3.626 16.303 0.058235 0.30095 -3.020363
2011-11-23 09:27:16 51°18.834 3°3.722 16.3169 0.058132 0.300425 -3.020363
2011-11-23 09:28:16 51°18.93 3°3.818 16.3117 0.058235 0.300999 -3.020363
2011-11-23 09:29:16 51°19.073 3°3.868 16.3018 0.058235 0.301009 -3.020363
2011-11-23 09:30:16 51°19.244 3°3.884 16.291 0.058235 0.301029 -3.020363
2011-11-23 09:31:16 51°19.432 3°3.858 16.3173 0.058235 0.301054 -3.020363
2011-11-23 09:32:16 51°19.622 3°3.816 16.3152 0.058132 0.300538 -3.020363
2011-11-23 09:33:16 51°19.816 3°3.79 16.367 0.058235 0.301123 -3.020363
2011-11-23 09:34:16 51°20.005 3°3.738 16.3606 0.058132 0.300612 -3.020363
2011-11-23 09:35:16 51°20.193 3°3.683 16.3488 0.058235 0.301192 -3.020363
2011-11-23 09:36:16 51°20.383 3°3.632 16.3853 0.058132 0.300685 -3.020363
2011-11-23 09:37:16 51°20.569 3°3.571 16.3993 0.058132 0.30072 -3.020363
2011-11-23 09:38:16 51°20.756 3°3.514 16.4144 0.058132 0.300759 -3.020363
2011-11-23 09:39:16 51°20.942 3°3.461 16.3563 0.058132 0.300804 -3.020363
2011-11-23 09:40:16 51°21.137 3°3.476 16.4366 0.058132 0.300848 -3.020363
2011-11-23 09:41:16 51°21.335 3°3.505 16.4091 0.058132 0.300907 -3.020363
2011-11-23 09:42:16 51°21.531 3°3.529 16.4609 0.058132 0.300951 -3.020363
2011-11-23 09:43:16 51°21.718 3°3.495 16.4443 0.058132 0.301015 -3.020363
2011-11-23 09:44:16 51°21.903 3°3.441 16.4311 0.058132 0.30107 -3.020363
2011-11-23 09:45:16 51°22.092 3°3.406 16.445 0.058132 0.301134 -3.020363
2011-11-23 09:46:16 51°22.28 3°3.371 16.4559 0.058132 0.301193 -3.020363
2011-11-23 09:47:16 51°22.466 3°3.336 16.4707 0.058132 0.301257 -3.020363
2011-11-23 09:48:16 51°22.651 3°3.297 16.471 0.058029 0.30077 -3.020363
2011-11-23 09:49:16 51°22.839 3°3.302 16.4833 0.058029 0.300844 -3.020363
2011-11-23 09:50:16 51°23.031 3°3.309 16.5136 0.058029 0.300923 -3.020363
2011-11-23 09:51:16 51°23.217 3°3.29 16.4858 0.058029 0.300992 -3.020363
2011-11-23 09:52:16 51°23.402 3°3.263 16.515 0.058029 0.301061 -3.020363
2011-11-23 09:53:16 51°23.591 3°3.247 16.5256 0.058029 0.301146 -3.020363
2011-11-23 09:54:16 51°23.779 3°3.225 16.5032 0.058029 0.30122 -3.020363
2011-11-23 09:55:16 51°23.969 3°3.215 16.5496 0.058029 0.301294 -3.020363
2011-11-23 09:56:16 51°24.161 3°3.211 16.5498 0.058029 0.301378 -3.020363
2011-11-23 09:57:16 51°24.347 3°3.184 16.5753 0.057926 0.300895 -3.020363
2011-11-23 09:58:16 51°24.529 3°3.15 16.605 0.058029 0.301517 -3.020363
2011-11-23 09:59:16 51°24.691 3°3.049 16.5791 0.057926 0.301029 -3.020363
2011-11-23 10:00:16 51°24.812 3°2.874 16.6288 0.058029 0.301661 -3.020363
2011-11-23 10:01:16 51°24.853 3°2.631 16.5584 0.057926 0.301168 -3.020363
2011-11-23 10:02:16 51°24.868 3°2.377 16.5667 0.057823 0.300694 -3.020363
2011-11-23 10:03:16 51°24.885 3°2.124 16.6047 0.057823 0.300778 -3.020363
2011-11-23 10:04:16 51°24.897 3°1.868 16.6055 0.057823 0.300862 -3.020363
2011-11-23 10:05:16 51°24.911 3°1.611 16.6306 0.057823 0.300942 -3.020363
2011-11-23 10:06:16 51°24.929 3°1.356 16.6206 0.057823 0.301036 -3.020363
2011-11-23 10:07:16 51°24.933 3°1.099 16.6079 0.057823 0.301111 -3.020363
2011-11-23 10:08:16 51°24.927 3°0.841 16.6407 0.057823 0.301185 -3.020363
2011-11-23 10:09:16 51°24.924 3°0.585 16.6075 0.057823 0.301265 -3.020363
2011-11-23 10:10:16 51°24.932 3°0.327 16.6414 0.057823 0.30134 -3.020363
2011-11-23 10:11:16 51°24.943 3°0.069 16.6822 0.057823 0.301424 -3.020363
2011-11-23 10:12:16 51°24.943 2°59.811 16.6613 0.057721 0.300959 -3.020363
2011-11-23 10:13:16 51°24.941 2°59.552 16.6493 0.057823 0.301594 -3.020363
2011-11-23 10:14:16 51°24.947 2°59.29 16.6654 0.057721 0.301138 -3.020363
2011-11-23 10:15:16 51°24.955 2°59.029 16.6637 0.057721 0.301228 -3.020363
2011-11-23 10:16:16 51°24.968 2°58.768 16.6626 0.057721 0.301313 -3.020363
2011-11-23 10:17:16 51°24.98 2°58.507 16.6785 0.057721 0.301393 -3.020363
2011-11-23 10:18:16 51°24.983 2°58.298 16.7608 0.057618 0.300922 -3.020363
2011-11-23 10:19:16 51°24.993 2°58.167 16.7809 0.057618 0.301007 -3.020363
2011-11-23 10:20:16 51°25.009 2°58.007 16.7419 0.057618 0.301107 -3.020363
2011-11-23 10:21:16 51°25.022 2°57.837 16.7325 0.057618 0.301192 -3.020363
2011-11-23 10:22:16 51°25.033 2°57.68 16.7697 0.057515 0.300725 -3.020363
2011-11-23 10:23:16 51°25.048 2°57.528 16.7762 0.057515 0.30081 -3.020363
2011-11-23 10:24:16 51°25.06 2°57.375 16.7918 0.057515 0.30089 -3.020363
2011-11-23 10:25:16 51°25.07 2°57.22 16.7892 0.057618 0.301532 -3.020363
2011-11-23 10:26:16 51°25.078 2°57.065 16.81 0.057515 0.30106 -3.020363
2011-11-23 10:27:16 51°25.096 2°56.91 16.8007 0.057515 0.301145 -3.020363
2011-11-23 10:28:16 51°25.111 2°56.754 16.8206 0.057515 0.301236 -3.020363
2011-11-23 10:29:16 51°25.119 2°56.6 16.826 0.057515 0.301311 -3.020363
2011-11-23 10:30:16 51°25.134 2°56.443 16.8201 0.057412 0.300848 -3.020363
2011-11-23 10:31:16 51°25.153 2°56.285 16.8735 0.057412 0.300939 -3.020363
2011-11-23 10:32:16 51°25.169 2°56.127 16.843 0.057412 0.301014 -3.020363
2011-11-23 10:33:16 51°25.184 2°55.969 16.8807 0.057412 0.301104 -3.020363
2011-11-23 10:34:16 51°25.203 2°55.81 16.8623 0.057412 0.301195 -3.020363
2011-11-23 10:35:16 51°25.225 2°55.65 16.8609 0.057412 0.30127 -3.020363
2011-11-23 10:36:16 51°25.244 2°55.488 16.8984 0.057412 0.301356 -3.020363
2011-11-23 10:37:16 51°25.259 2°55.325 16.8884 0.057309 0.300882 -3.020363
2011-11-23 10:38:16 51°25.277 2°55.16 16.8706 0.057309 0.300968 -3.020363
2011-11-23 10:39:16 51°25.299 2°54.995 16.9131 0.057309 0.301043 -3.020363
2011-11-23 10:40:16 51°25.313 2°54.83 16.8946 0.057309 0.301124 -3.020363
2011-11-23 10:41:16 51°25.33 2°54.663 16.9162 0.057309 0.301204 -3.020363
2011-11-23 10:42:16 51°25.349 2°54.498 16.9259 0.057309 0.301285 -3.020363
2011-11-23 10:43:16 51°25.367 2°54.331 16.9234 0.057309 0.301371 -3.020363
2011-11-23 10:44:16 51°25.386 2°54.165 16.9409 0.057309 0.301451 -3.020363
2011-11-23 10:45:16 51°25.401 2°53.999 16.9559 0.057207 0.300982 -3.020363
2011-11-23 10:46:16 51°25.417 2°53.835 16.984 0.057207 0.301068 -3.020363
2011-11-23 10:47:16 51°25.438 2°53.672 16.9895 0.057207 0.301159 -3.020363
2011-11-23 10:48:16 51°25.437 2°53.514 16.9733 0.057207 0.301245 -3.020363
2011-11-23 10:49:16 51°25.423 2°53.36 16.9758 0.057207 0.301341 -3.020363
2011-11-23 10:50:16 51°25.413 2°53.205 17.0027 0.057104 0.300886 -3.020363
2011-11-23 10:51:16 51°25.407 2°53.053 17.0272 0.057104 0.300992 -3.020363
2011-11-23 10:52:16 51°25.401 2°52.901 17.0173 0.057104 0.301098 -3.020363
2011-11-23 10:53:16 51°25.41 2°52.746 17.0148 0.057104 0.301215 -3.020363
2011-11-23 10:54:16 51°25.42 2°52.59 17.0257 0.057104 0.301326 -3.020363
2011-11-23 10:55:16 51°25.423 2°52.437 17.051 0.057001 0.300886 -3.020363
2011-11-23 10:56:16 51°25.424 2°52.283 17.0401 0.057001 0.301007 -3.020363
2011-11-23 10:57:16 51°25.428 2°52.127 17.0728 0.057001 0.301129 -3.020363
2011-11-23 10:58:16 51°25.436 2°51.97 17.0702 0.057001 0.301256 -3.020363
2011-11-23 10:59:16 51°25.443 2°51.813 17.0927 0.057001 0.301383 -3.020363
2011-11-23 11:00:16 51°25.445 2°51.659 17.0857 0.057001 0.30151 -3.020363
2011-11-23 11:01:16 51°25.444 2°51.507 17.0743 0.056898 0.301084 -3.020363
2011-11-23 11:02:16 51°25.445 2°51.355 17.0837 0.056898 0.301211 -3.020363
2011-11-23 11:03:16 51°25.452 2°51.201 17.1071 0.056898 0.301344 -3.020363
2011-11-23 11:04:16 51°25.459 2°51.045 17.1378 0.056898 0.301471 -3.020363
2011-11-23 11:05:16 51°25.461 2°50.89 17.1583 0.056795 0.301044 -3.020363
2011-11-23 11:06:16 51°25.459 2°50.735 17.1287 0.056898 0.301737 -3.020363
2011-11-23 11:07:16 51°25.461 2°50.578 17.1587 0.056795 0.30131 -3.020363
2011-11-23 11:08:16 51°25.467 2°50.42 12.0813 0.056795 0.301448 -3.020363
2011-11-23 11:09:16 51°25.472 2°50.263 11.3235 0.055356 0.293795 -3.020363
2011-11-23 11:10:16 51°25.472 2°50.105 11.219 0.055356 0.293974 -3.020363
2011-11-23 11:11:16 51°25.471 2°49.949 11.2088 0.055253 0.293568 -3.020363
2011-11-23 11:12:16 51°25.49 2°49.794 11.1822 0.055253 0.293733 -3.020363
2011-11-23 11:13:16 51°25.522 2°49.642 11.1752 0.05515 0.293317 -3.020363
2011-11-23 11:14:16 51°25.553 2°49.491 11.1457 0.05515 0.293467 -3.020363
2011-11-23 11:15:16 51°25.582 2°49.343 11.1428 0.05515 0.293616 -3.020363
2011-11-23 11:16:16 51°25.605 2°49.194 11.1284 0.05515 0.293756 -3.020363
2011-11-23 11:17:16 51°25.629 2°49.044 11.122 0.05515 0.293897 -3.020363
2011-11-23 11:18:16 51°25.658 2°48.894 11.1087 0.055048 0.29348 -3.020363
2011-11-23 11:19:16 51°25.688 2°48.743 11.1115 0.055048 0.293625 -3.020363
2011-11-23 11:20:16 51°25.717 2°48.59 11.1214 0.055048 0.29377 -3.020363
2011-11-23 11:21:16 51°25.742 2°48.436 11.1399 0.055048 0.293916 -3.020363
2011-11-23 11:22:16 51°25.764 2°48.281 11.1662 0.054945 0.293488 -3.020363
2011-11-23 11:23:16 51°25.787 2°48.123 11.2151 0.054945 0.293629 -3.020363
2011-11-23 11:24:16 51°25.816 2°47.966 11.2631 0.054945 0.293769 -3.020363
2011-11-23 11:25:16 51°25.844 2°47.808 11.3235 0.054945 0.2939 -3.020363
2011-11-23 11:26:16 51°25.867 2°47.648 11.3943 0.054842 0.293472 -3.020363
2011-11-23 11:27:16 51°25.884 2°47.486 11.4618 0.054842 0.293618 -3.020363
2011-11-23 11:28:16 51°25.902 2°47.322 11.5296 0.054842 0.293764 -3.020363
2011-11-23 11:29:16 51°25.922 2°47.158 11.6643 0.054739 0.29334 -3.020363
2011-11-23 11:30:16 51°25.946 2°46.993 11.786 0.054739 0.293481 -3.020363
2011-11-23 11:31:16 51°25.969 2°46.829 11.844 0.054739 0.293617 -3.020363
2011-11-23 11:32:16 51°25.993 2°46.664 11.8809 0.054739 0.293749 -3.020363
2011-11-23 11:33:16 51°26.011 2°46.5 11.8737 0.054739 0.29388 -3.020363
2011-11-23 11:34:16 51°26.028 2°46.336 12.006 0.054739 0.294007 -3.020363
2011-11-23 11:35:16 51°26.046 2°46.172 11.9481 0.054636 0.293567 -3.020363
2011-11-23 11:36:16 51°26.071 2°46.009 11.9574 0.054636 0.293698 -3.020363
2011-11-23 11:37:16 51°26.086 2°45.848 11.9468 0.054636 0.29382 -3.020363
2011-11-23 11:38:16 51°26.084 2°45.689 11.9183 0.054636 0.293947 -3.020363
2011-11-23 11:39:16 51°26.083 2°45.528 11.9148 0.054636 0.294079 -3.020363
2011-11-23 11:40:16 51°26.088 2°45.365 11.9109 0.054636 0.294206 -3.020363
2011-11-23 11:41:16 51°26.094 2°45.2 11.8417 0.054534 0.293745 -3.020363
2011-11-23 11:42:16 51°26.097 2°45.036 11.7908 0.054534 0.293836 -3.020363
2011-11-23 11:43:16 51°26.095 2°44.874 11.774 0.054534 0.293917 -3.020363
2011-11-23 11:44:16 51°26.096 2°44.71 11.7742 0.054534 0.293989 -3.020363
2011-11-23 11:45:16 51°26.099 2°44.546 11.7501 0.054534 0.29406 -3.020363
2011-11-23 11:46:16 51°26.106 2°44.382 11.8009 0.054534 0.294131 -3.020363
2011-11-23 11:47:16 51°26.111 2°44.218 11.7822 0.054534 0.294193 -3.020363
2011-11-23 11:48:16 51°26.113 2°44.055 11.8016 0.054431 0.293679 -3.020363
2011-11-23 11:49:16 51°26.113 2°43.895 11.8383 0.054431 0.29373 -3.020363
2011-11-23 11:50:16 51°26.117 2°43.735 11.8835 0.054431 0.293786 -3.020363
2011-11-23 11:51:16 51°26.118 2°43.572 11.9037 0.054431 0.293837 -3.020363
2011-11-23 11:52:16 51°26.126 2°43.407 11.9188 0.054431 0.293888 -3.020363
2011-11-23 11:53:16 51°26.134 2°43.242 11.9561 0.054431 0.293939 -3.020363
2011-11-23 11:54:16 51°26.14 2°43.077 11.9995 0.054431 0.293985 -3.020363
2011-11-23 11:55:16 51°26.141 2°42.914 12.0596 0.054328 0.293461 -3.020363
2011-11-23 11:56:16 51°26.145 2°42.749 12.1454 0.054328 0.293512 -3.020363
2011-11-23 11:57:16 51°26.15 2°42.584 12.2021 0.054328 0.293558 -3.020363
2011-11-23 11:58:16 51°26.154 2°42.419 12.263 0.054328 0.293609 -3.020363
2011-11-23 11:59:16 51°26.158 2°42.254 12.2691 0.054328 0.293655 -3.020363
2011-11-23 12:00:16 51°26.164 2°42.087 12.303 0.054328 0.293696 -3.020363
2011-11-23 12:01:16 51°26.172 2°41.92 12.3143 0.054328 0.293747 -3.020363
2011-11-23 12:02:16 51°26.176 2°41.75 12.3312 0.054328 0.293793 -3.020363
2011-11-23 12:03:16 51°26.18 2°41.579 12.3194 0.054328 0.293839 -3.020363
2011-11-23 12:04:16 51°26.182 2°41.409 12.3078 0.071807 0.400004 -3.020363
2011-11-23 12:05:16 51°26.219 2°41.243 12.304 3.774973 32.30573 -3.020363
2011-11-23 12:06:16 51°26.258 2°41.078 12.3026 3.908204 33.617688 -3.020363
2011-11-23 12:07:16 51°26.286 2°40.913 12.2973 3.914628 33.687034 -3.020363
2011-11-23 12:08:16 51°26.312 2°40.75 12.2749 3.914007 33.691888 -3.020363
2011-11-23 12:09:16 51°26.339 2°40.587 12.2659 3.91121 33.686681 -3.020363
2011-11-23 12:10:16 51°26.369 2°40.423 12.2394 3.909552 33.690101 -3.020363
2011-11-23 12:11:16 51°26.4 2°40.261 12.2235 3.906962 33.678369 -3.020363
2011-11-23 12:12:16 51°26.429 2°40.098 12.212 3.904786 33.673712 -3.020363
2011-11-23 12:13:16 51°26.455 2°39.934 12.2036 3.902921 33.665072 -3.020363
2011-11-23 12:14:16 51°26.486 2°39.772 12.2026 3.901471 33.656542 -3.020363
2011-11-23 12:15:16 51°26.518 2°39.609 12.1975 3.899709 33.641924 -3.020363
2011-11-23 12:16:16 51°26.544 2°39.447 12.1999 3.899191 33.639263 -3.020363
2011-11-23 12:17:16 51°26.562 2°39.285 12.194 3.899399 33.64358 -3.020363
2011-11-23 12:18:16 51°26.577 2°39.121 12.1945 3.899606 33.648671 -3.020363
2011-11-23 12:19:16 51°26.593 2°38.957 12.1935 3.899399 33.646677 -3.020363
2011-11-23 12:20:16 51°26.616 2°38.791 12.1953 3.899813 33.650665 -3.020363
2011-11-23 12:21:16 51°26.637 2°38.625 12.1973 3.898155 33.634716 -3.020363
2011-11-23 12:22:16 51°26.652 2°38.458 12.2043 3.898777 33.636825 -3.020363
2011-11-23 12:23:16 51°26.668 2°38.292 12.2107 3.899917 33.643143 -3.020363
2011-11-23 12:24:16 51°26.689 2°38.127 12.2314 3.898051 33.615923 -3.020363
2011-11-23 12:25:16 51°26.711 2°37.962 12.2504 3.902817 33.643177 -3.020363
2011-11-23 12:26:16 51°26.728 2°37.777 12.277 3.906029 33.656254 -3.020363
2011-11-23 12:27:16 51°26.745 2°37.49 12.3134 3.908723 33.65739 -3.020363
2011-11-23 12:28:15 51°26.731 2°37.206 12.3745 3.913903 33.671579 -3.020363
2011-11-23 12:29:16 51°26.668 2°36.933 12.4434 3.922606 33.699455 -3.020363
2011-11-23 12:30:16 51°26.57 2°36.694 12.5185 3.93276 33.731913 -3.020363
2011-11-23 12:31:16 51°26.481 2°36.444 12.571 3.939598 33.734942 -3.020363
2011-11-23 12:32:14 51°26.384 2°36.212 12.5889 3.945607 33.756191 -3.020363
2011-11-23 12:33:15 51°26.293 2°35.954 12.5925 3.947783 33.762355 -3.020363
2011-11-23 12:34:14 51°26.193 2°35.717 12.5904 3.947265 33.755109 -3.020363
2011-11-23 12:35:15 51°26.092 2°35.467 12.5919 3.947472 33.757086 -3.020363
2011-11-23 12:36:16 51°25.999 2°35.209 12.5895 3.94768 33.759062 -3.020363
2011-11-23 12:37:15 51°25.895 2°34.975 12.5941 3.948716 33.768178 -3.020363
2011-11-23 12:38:16 51°25.825 2°34.699 12.6019 3.948198 33.757093 -3.020363
2011-11-23 12:39:15 51°25.766 2°34.423 12.6131 3.948612 33.754904 -3.020363
2011-11-23 12:40:16 51°25.672 2°34.163 12.6273 3.949026 33.751181 -3.020363
2011-11-23 12:41:15 51°25.576 2°33.915 12.6338 3.950684 33.755476 -3.020363
2011-11-23 12:42:16 51°25.491 2°33.646 12.6385 3.94913 33.731465 -3.020363
2011-11-23 12:43:15 51°25.399 2°33.398 12.6441 3.948197 33.71875 -3.020363
2011-11-23 12:44:16 51°25.304 2°33.142 12.6434 3.945607 33.692544 -3.020363
2011-11-23 12:45:16 51°25.208 2°32.895 12.65 3.944674 33.681367 -3.020363
2011-11-23 12:46:16 51°25.102 2°32.662 12.6544 3.946228 33.691579 -3.020363
2011-11-23 12:47:16 51°24.993 2°32.434 12.6645 3.94571 33.678997 -3.020363
2011-11-23 12:48:16 51°24.901 2°32.185 12.6607 3.947471 33.691944 -3.020363
2011-11-23 12:49:16 51°24.789 2°31.962 12.6596 3.949544 33.713204 -3.020363
2011-11-23 12:50:16 51°24.667 2°31.752 12.6565 3.950373 33.724159 -3.020363
2011-11-23 12:51:16 51°24.552 2°31.533 12.6467 3.949751 33.722832 -3.020363
2011-11-23 12:52:15 51°24.443 2°31.311 12.632 3.957731 33.807275 -3.020363
2011-11-23 12:53:16 51°24.325 2°31.089 12.6226 3.95628 33.804201 -3.020363
2011-11-23 12:54:16 51°24.202 2°30.884 12.6217 3.95514 33.80025 -3.020363
2011-11-23 12:55:16 51°24.082 2°30.674 12.6246 3.954829 33.798054 -3.020363
2011-11-23 12:56:16 51°23.976 2°30.443 12.6288 3.955036 33.795421 -3.020363
2011-11-23 12:57:16 51°23.886 2°30.278 12.6306 3.955451 33.797836 -3.020363
2011-11-23 12:58:16 51°23.821 2°30.216 12.6331 3.955658 33.799043 -3.020363
2011-11-23 12:59:16 51°23.757 2°30.147 12.6365 3.956073 33.799154 -3.020363
2011-11-23 13:00:16 51°23.696 2°30.067 12.6367 3.956383 33.799045 -3.020363
2011-11-23 13:01:16 51°23.648 2°29.966 12.6396 3.956591 33.800252 -3.020363
2011-11-23 13:02:15 51°23.635 2°29.845 12.6425 3.956487 33.799265 -3.020363
2011-11-23 13:03:16 51°23.657 2°29.763 12.6429 3.956591 33.797949 -3.020363
2011-11-23 13:04:15 51°23.687 2°29.737 12.645 3.956383 33.796742 -3.020363
2011-11-23 13:05:16 51°23.708 2°29.759 12.6468 3.956694 33.796633 -3.020363
2011-11-23 13:06:15 51°23.732 2°29.783 12.6483 3.956901 33.797073 -3.020363
2011-11-23 13:07:16 51°23.745 2°29.81 12.6512 3.958041 33.804862 -3.020363
2011-11-23 13:08:15 51°23.756 2°29.835 12.652 3.957316 33.797951 -3.020363
2011-11-23 13:09:16 51°23.769 2°29.862 12.6515 3.95742 33.797404 -3.020363
2011-11-23 13:10:16 51°23.784 2°29.888 12.6563 3.957523 33.796088 -3.020363
2011-11-23 13:11:15 51°23.799 2°29.914 12.6554 3.95773 33.797295 -3.020363
2011-11-23 13:12:16 51°23.815 2°29.942 12.6581 3.957523 33.796088 -3.020363
2011-11-23 13:13:15 51°23.831 2°29.97 12.6595 3.957627 33.795541 -3.020363
2011-11-23 13:14:16 51°23.849 2°29.999 12.6592 3.95773 33.794993 -3.020363
2011-11-23 13:15:15 51°23.865 2°30.029 12.657 3.957627 33.795541 -3.020363
2011-11-23 13:16:16 51°23.882 2°30.059 12.6581 3.957627 33.795541 -3.020363
2011-11-23 13:17:15 51°23.899 2°30.089 12.6587 3.957627 33.796308 -3.020363
2011-11-23 13:18:16 51°23.916 2°30.12 12.6558 3.95742 33.794334 -3.020363
2011-11-23 13:19:16 51°23.933 2°30.15 12.654 3.957109 33.793675 -3.020363
2011-11-23 13:20:16 51°23.949 2°30.179 12.6574 3.956901 33.792468 -3.020363
2011-11-23 13:21:16 51°23.966 2°30.209 12.6521 3.956901 33.790933 -3.020363
2011-11-23 13:22:16 51°23.983 2°30.238 12.6498 3.956591 33.791041 -3.020363
2011-11-23 13:23:16 51°23.999 2°30.268 12.6481 3.956383 33.790601 -3.020363
2011-11-23 13:24:16 51°24.015 2°30.299 12.6497 3.956176 33.789394 -3.020363
2011-11-23 13:25:15 51°24.03 2°30.327 12.6537 3.95628 33.788847 -3.020363
2011-11-23 13:26:16 51°24.047 2°30.357 12.6477 3.956176 33.78786 -3.020363
2011-11-23 13:27:15 51°24.063 2°30.386 12.6524 3.955865 33.7872 -3.020363
2011-11-23 13:28:15 51°24.08 2°30.415 12.6505 3.955762 33.783144 -3.020363
2011-11-23 13:29:16 51°24.097 2°30.444 12.6524 3.955762 33.784678 -3.020363
2011-11-23 13:30:16 51°24.114 2°30.471 12.6468 3.955762 33.783911 -3.020363
2011-11-23 13:31:16 51°24.131 2°30.498 12.6447 3.955244 33.782811 -3.020363
2011-11-23 13:32:15 51°24.147 2°30.525 12.6441 3.95514 33.781824 -3.020363
2011-11-23 13:33:16 51°24.163 2°30.554 12.6491 3.955036 33.783138 -3.020363
2011-11-23 13:34:15 51°24.18 2°30.58 12.6439 3.955036 33.780836 -3.020363
2011-11-23 13:35:16 51°24.197 2°30.607 12.6473 3.954725 33.780944 -3.020363
2011-11-23 13:36:15 51°24.213 2°30.634 12.6465 3.954933 33.778315 -3.020363
2011-11-23 13:37:16 51°24.231 2°30.662 12.6443 3.954104 33.772718 -3.020363
2011-11-23 13:38:15 51°24.247 2°30.689 12.643 3.953793 33.772058 -3.020363
2011-11-23 13:39:16 51°24.265 2°30.716 12.6429 3.953586 33.771618 -3.020363
2011-11-23 13:40:15 51°24.281 2°30.743 12.6422 3.953275 33.768656 -3.020363
2011-11-23 13:41:16 51°24.298 2°30.768 12.64 3.953378 33.768876 -3.020363
2011-11-23 13:42:15 51°24.315 2°30.793 12.6399 3.953171 33.76997 -3.020363
2011-11-23 13:43:16 51°24.333 2°30.819 12.6371 3.952757 33.766787 -3.020363
2011-11-23 13:44:15 51°24.35 2°30.845 12.6393 3.952653 33.767334 -3.020363
2011-11-23 13:45:16 51°24.366 2°30.871 12.635 3.952549 33.766347 -3.020363
2011-11-23 13:46:15 51°24.382 2°30.895 12.6393 3.952342 33.765906 -3.020363
2011-11-23 13:47:16 51°24.399 2°30.919 12.6362 3.952239 33.762617 -3.020363
2011-11-23 13:48:16 51°24.415 2°30.942 12.6341 3.952239 33.764152 -3.020363
2011-11-23 13:49:16 51°24.43 2°30.965 12.64 3.952031 33.762944 -3.020363
2011-11-23 13:50:16 51°24.447 2°30.988 12.6417 3.952135 33.759329 -3.020363
2011-11-23 13:51:16 51°24.462 2°31.011 12.6377 3.952342 33.760537 -3.020363
2011-11-23 13:52:16 51°24.479 2°31.034 12.6363 3.952031 33.759876 -3.020363
2011-11-23 13:53:16 51°24.495 2°31.058 12.6382 3.951928 33.758888 -3.020363
2011-11-23 13:54:16 51°24.511 2°31.082 12.6362 3.952031 33.760643 -3.020363
2011-11-23 13:55:16 51°24.528 2°31.106 12.6376 3.951824 33.758668 -3.020363
2011-11-23 13:56:15 51°24.544 2°31.129 12.6402 3.951824 33.757901 -3.020363
2011-11-23 13:57:15 51°24.56 2°31.152 12.6406 3.951824 33.757134 -3.020363
2011-11-23 13:58:15 51°24.576 2°31.175 12.636 3.95172 33.756914 -3.020363
2011-11-23 13:59:15 51°24.603 2°31.197 12.6394 3.95141 33.756252 -3.020363
2011-11-23 14:00:15 51°24.65 2°31.251 12.6391 3.951513 33.755706 -3.020363
2011-11-23 14:01:15 51°24.657 2°31.343 12.6365 3.95172 33.753846 -3.020363
2011-11-23 14:02:15 51°24.604 2°31.463 12.6378 3.951513 33.754939 -3.020363
2011-11-23 14:03:15 51°24.502 2°31.683 12.6414 3.951306 33.752964 -3.020363
2011-11-23 14:04:15 51°24.377 2°31.939 12.6507 3.951513 33.748038 -3.020363
2011-11-23 14:05:15 51°24.239 2°32.178 12.6573 3.952342 33.746738 -3.020363
2011-11-23 14:06:15 51°24.093 2°32.403 12.6717 3.953171 33.748503 -3.020363
2011-11-23 14:07:15 51°23.934 2°32.604 12.6849 3.955139 33.751928 -3.020363
2011-11-23 14:08:15 51°23.785 2°32.822 12.6599 3.956486 33.757092 -3.020363
2011-11-23 14:09:15 51°23.623 2°33.02 12.6122 3.953793 33.759022 -3.020363
2011-11-23 14:10:15 51°23.464 2°33.222 12.5984 3.947265 33.738224 -3.020363
2011-11-23 14:11:15 51°23.281 2°33.354 12.5866 3.945503 33.729867 -3.020363
2011-11-23 14:12:15 51°23.087 2°33.438 12.6176 3.943846 33.720194 -3.020363
2011-11-23 14:13:16 51°22.893 2°33.547 12.7 3.947368 33.718513 -3.020363
2011-11-23 14:14:15 51°22.709 2°33.665 12.7853 3.957108 33.732404 -3.020363
2011-11-23 14:15:15 51°22.517 2°33.754 12.8289 3.967262 33.760906 -3.020363
2011-11-23 14:16:15 51°22.333 2°33.864 12.8507 3.973376 33.786874 -3.020363
2011-11-23 14:17:15 51°22.173 2°34.045 12.864 3.976381 33.799354 -3.020363
2011-11-23 14:18:15 51°22.028 2°34.258 12.8694 3.977313 33.799044 -3.020363
2011-11-23 14:19:16 51°21.907 2°34.515 12.8656 3.97752 33.797958 -3.020363
2011-11-23 14:20:15 51°21.781 2°34.755 12.8515 3.976899 33.794352 -3.020363
2011-11-23 14:21:16 51°21.645 2°34.994 12.7962 3.974412 33.789073 -3.020363
2011-11-23 14:22:15 51°21.522 2°35.237 12.7049 3.967677 33.783173 -3.020363
2011-11-23 14:23:15 51°21.391 2°35.48 12.6465 3.957937 33.76324 -3.020363
2011-11-23 14:24:16 51°21.256 2°35.722 12.604 3.950995 33.737739 -3.020363
2011-11-23 14:25:15 51°21.132 2°35.965 12.4752 3.9454 33.737319 -3.020363
2011-11-23 14:26:16 51°20.99 2°36.199 12.2779 3.930273 33.735865 -3.020363
2011-11-23 14:27:15 51°20.866 2°36.438 12.2006 3.910484 33.688225 -3.020363
2011-11-23 14:28:16 51°20.732 2°36.677 12.1678 3.900953 33.656206 -3.020363
2011-11-23 14:29:15 51°20.607 2°36.913 12.1668 3.897327 33.644556 -3.020363
2011-11-23 14:30:16 51°20.469 2°37.147 12.1699 3.897327 33.647656 -3.020363
2011-11-23 14:31:15 51°20.337 2°37.375 12.182 3.898363 33.652203 -3.020363
2011-11-23 14:32:15 51°20.196 2°37.601 12.2033 3.900228 33.657751 -3.020363
2011-11-23 14:33:16 51°20.059 2°37.836 12.2405 3.902507 33.658763 -3.020363
2011-11-23 14:34:15 51°19.927 2°38.064 12.2789 3.906755 33.667864 -3.020363
2011-11-23 14:35:16 51°19.79 2°38.301 12.3198 3.912038 33.682267 -3.020363
2011-11-23 14:36:15 51°19.659 2°38.533 12.3352 3.916493 33.69643 -3.020363
2011-11-23 14:37:16 51°19.519 2°38.767 12.3373 3.918462 33.702953 -3.020363
2011-11-23 14:38:15 51°19.389 2°39.002 12.3343 3.918669 33.704168 -3.020363
2011-11-23 14:39:16 51°19.25 2°39.24 12.3336 3.918048 33.69975 -3.020363
2011-11-23 14:40:16 51°19.114 2°39.477 12.3534 3.917426 33.691471 -3.020363
2011-11-23 14:41:16 51°18.985 2°39.72 12.3821 3.918876 33.686853 -3.020363
2011-11-23 14:42:16 51°18.85 2°39.952 12.3868 3.921777 33.691514 -3.020363
2011-11-23 14:43:15 51°18.716 2°40.183 12.3306 3.922088 33.702206 -3.020363
2011-11-23 14:44:16 51°18.577 2°40.42 12.223 3.916805 33.714101 -3.020363
2011-11-23 14:45:15 51°18.453 2°40.654 12.2062 3.906962 33.703162 -3.020363
2011-11-23 14:46:16 51°18.32 2°40.891 12.1838 3.90489 33.683231 -3.020363
2011-11-23 14:47:15 51°18.191 2°41.123 12.0965 3.902922 33.695308 -3.020363
2011-11-23 14:48:15 51°18.063 2°41.367 11.9831 3.894427 33.705154 -3.020363
2011-11-23 14:49:15 51°17.936 2°41.612 11.8474 3.883445 33.705905 -3.020363
2011-11-23 14:50:15 51°17.801 2°41.85 11.7701 3.869563 33.680175 -3.020363
2011-11-23 14:51:16 51°17.675 2°42.105 11.7581 3.860861 33.641947 -3.020363
2011-11-23 14:52:15 51°17.554 2°42.355 11.7018 3.858375 33.631908 -3.020363
2011-11-23 14:53:15 51°17.426 2°42.598 11.5313 3.854025 33.668155 -3.020363
2011-11-23 14:54:15 51°17.292 2°42.815 11.4123 3.839315 33.686461 -3.020363
2011-11-23 14:55:15 51°17.169 2°43.04 11.3205 3.822223 33.626106 -3.020363
2011-11-23 14:56:16 51°17.063 2°43.3 11.2907 3.813625 33.591763 -3.020363
2011-11-23 14:57:15 51°16.941 2°43.537 11.2695 3.809689 33.573761 -3.020363
2011-11-23 14:58:16 51°16.817 2°43.789 11.2425 3.807514 33.575428 -3.020363
2011-11-23 14:59:15 51°16.722 2°44.057 11.2379 3.806685 33.593522 -3.020363
2011-11-23 15:00:16 51°16.635 2°44.343 11.2339 3.808136 33.609374 -3.020363
2011-11-23 15:01:15 51°16.549 2°44.616 11.1958 3.80824 33.623933 -3.020363
2011-11-23 15:02:16 51°16.462 2°44.894 11.131 3.804511 33.630291 -3.020363
2011-11-23 15:03:15 51°16.366 2°45.157 11.0851 3.799125 33.625132 -3.020363
2011-11-23 15:04:16 51°16.291 2°45.446 11.0369 3.794049 33.618243 -3.020363
2011-11-23 15:05:16 51°16.251 2°45.745 10.9831 3.789077 33.609173 -3.020363
2011-11-23 15:06:15 51°16.208 2°46.037 10.9327 3.784002 33.604688 -3.020363
2011-11-23 15:07:16 51°16.158 2°46.337 10.9015 3.777891 33.591556 -3.020363
2011-11-23 15:08:15 51°16.086 2°46.616 10.8816 3.773851 33.579653 -3.020363
2011-11-23 15:09:16 51°16.018 2°46.908 10.8852 3.772091 33.572647 -3.020363
2011-11-23 15:10:15 51°15.943 2°47.185 10.8851 3.771883 33.570594 -3.020363
2011-11-23 15:11:15 51°15.863 2°47.466 10.8775 3.772091 33.575059 -3.020363
2011-11-23 15:12:15 51°15.795 2°47.753 10.9379 3.771676 33.56854 -3.020363
2011-11-23 15:13:15 51°15.751 2°48.048 11.0087 3.776648 33.55678 -3.020363
2011-11-23 15:14:15 51°15.685 2°48.333 11.0711 3.783587 33.562132 -3.020363
2011-11-23 15:15:15 51°15.617 2°48.616 11.1085 3.789077 33.569167 -3.020363
2011-11-23 15:16:15 51°15.552 2°48.9 11.1039 3.793013 33.58084 -3.020363
2011-11-23 15:17:15 51°15.495 2°49.191 11.0565 3.792909 33.591004 -3.020363
2011-11-23 15:18:15 51°15.438 2°49.484 10.9806 3.788559 33.596048 -3.020363
2011-11-23 15:19:15 51°15.379 2°49.775 10.8857 3.781413 33.603139 -3.020363
2011-11-23 15:20:15 51°15.336 2°50.071 10.8639 3.773334 33.594622 -3.020363
2011-11-23 15:21:15 51°15.288 2°50.365 10.8779 3.770123 33.570821 -3.020363
2011-11-23 15:22:15 51°15.26 2°50.663 10.8733 3.770951 33.56939 -3.020363
2011-11-23 15:23:15 51°15.225 2°50.959 10.8617 3.770537 33.572518 -3.020363
2011-11-23 15:24:15 51°15.177 2°51.253 10.8759 3.769708 33.565908 -3.020363
2011-11-23 15:25:16 51°15.127 2°51.55 10.8979 3.77033 33.560013 -3.020363
2011-11-23 15:26:15 51°15.063 2°51.831 10.9169 3.772194 33.560818 -3.020363
2011-11-23 15:27:15 51°15.008 2°52.12 10.8825 3.773126 33.560419 -3.020363
2011-11-23 15:28:15 51°14.974 2°52.416 10.7362 3.768673 33.57333 -3.020363
2011-11-23 15:29:16 51°14.945 2°52.719 10.5593 3.754069 33.552341 -3.020363
2011-11-23 15:30:15 51°14.908 2°53.011 10.2541 3.734805 33.531816 -3.020363
2011-11-23 15:31:15 51°14.866 2°53.307 9.9333 3.694001 33.450731 -3.020363
2011-11-23 15:32:15 51°14.813 2°53.6 9.7989 3.649575 33.22788 -3.020363
2011-11-23 15:33:16 51°14.769 2°53.9 9.7518 3.627414 33.098203 -3.020363
2011-11-23 15:34:16 51°14.72 2°54.194 9.7264 3.616231 33.034581 -3.020363
2011-11-23 15:35:15 51°14.668 2°54.48 9.7107 3.611261 33.003717 -3.020363
2011-11-23 15:36:15 51°14.613 2°54.77 9.6934 3.609397 33.001139 -3.020363
2011-11-23 15:37:15 51°14.511 2°55.024 9.7054 3.607119 32.988617 -3.020363
2011-11-23 15:38:16 51°14.371 2°55.197 9.9979 3.608983 32.987926 -3.020363
2011-11-23 15:39:18 51°14.261 2°55.314 10.1468 3.612814 33.024416 -3.020363
2011-11-23 15:40:19 51°14.156 2°55.403 10.2865 3.611468 33.010732 -3.020363
2011-11-23 15:41:17 51°14.052 2°55.479 10.3453 3.613435 33.029913 -3.020363
2011-11-23 15:42:15 51°13.956 2°55.546 10.4474 3.614471 33.033886 -3.020363
2011-11-23 15:43:16 51°13.86 2°55.612 10.5567 3.615713 33.028502 -3.020363
2011-11-23 15:44:15 51°13.771 2°55.693 10.6512 3.619027 33.030252 -3.020363
2011-11-23 15:45:16 51°13.71 2°55.796 10.7739 3.62265 33.030258 -3.020363
2011-11-23 15:46:18 51°13.667 2°55.889 10.8907 3.626792 33.033888 -3.020363
2011-11-23 15:47:17 51°13.644 2°55.971 11.0159 3.631141 33.040433 -3.020363
2011-11-23 15:48:16 51°13.636 2°56.016 11.0342 3.634558 33.040807 -3.020363